Tiempo atmosférico en la estación meteorológica de Blanes, Girona (60 m.)



Fecha
DESCASC
Temp. máxima en grados centígrados (hora)
DESCASC
Temp. mínima en grados centígrados (hora)
DESCASC
Temp. media en grados centígrados
DESCASC
Racha de viento máxima en m/sg (hora)
DESCASC
Velocidad máxima media en intervalos de 10 minutos(hora)
DESCASC
Precipitaciones diarias en mm
DESCASC
Precipitaciones de 00:00 a 06:00 en mm
DESCASC
Precipitaciones de 06:00 a 12:00 en mm
DESCASC
Precipitaciones de 12:00 a 18:00 en mm
DESCASC
Precipitaciones de 18:00 a 24:00 en mm
DESCASC
17-02-2019 16.1 (15:50) 7.7 (04:00) 11.9 6.11 (15:30) 3.33 (16:10) 0 0 0 0 0
16-02-2019 15.1 (14:30) 6.2 (08:10) 10.7 5.83 (06:40) 4.72 (06:40) 0 0 0 0 0
15-02-2019 16.2 (14:20) 6.5 (08:10) 11.4 9.17 (15:30) 6.39 (15:30) 0 0 0 0 0
14-02-2019 15.7 (14:30) 6.5 (00:00) 11.1 11.11 (18:00) 7.22 (17:50) 0 0 0 0 0
13-02-2019 15.7 (14:10) 7.3 (00:00) 11.5 7.22 (00:30) 4.44 (05:10) 0 0 0 0 0
12-02-2019 15.6 (13:00) 5.4 (00:00) 10.5 9.17 (15:20) 5.56 (00:10) 0 0 0 0 0
11-02-2019 15.8 (13:50) 9.7 (00:00) 12.8 9.72 (14:30) 5.83 (14:20) 0 0 0 0 0
10-02-2019 19.2 (15:50) 11.2 (00:00) 15.2 16.39 (12:50) 7.78 (12:40) 0 0 0 0 0
09-02-2019 17.4 (14:10) 8.4 (00:00) 12.9 9.44 (23:59) 4.72 (02:20) 0 0 0 0 0
08-02-2019 15.5 (13:40) 8.5 (00:00) 12 14.72 (19:00) 6.94 (13:40) 0 0 0 0 0
07-02-2019 14.4 (15:30) 6.9 (00:00) 10.6 5.83 (04:30) 4.17 (04:50) 0 0 0 0 0
06-02-2019 15.1 (12:00) 8.6 (00:00) 11.9 7.78 (04:30) 5.28 (03:50) 0 0 0 0 0
05-02-2019 15.7 (13:30) 7.3 (00:00) 11.5 6.39 (07:50) 4.44 (06:20) 0 0 0 0 0
04-02-2019 13.2 (14:30) 4 (00:00) 8.6 8.61 (03:30) 5.83 (03:30) 0 0 0 0 0
03-02-2019 13.4 (16:30) 4.2 (00:00) 8.8 8.89 (14:20) 5.83 (14:30) 0 0 0 0 0
02-02-2019 13 (13:40) 5.3 (00:00) 9.2 9.44 (19:00) 5 (23:20) 0 0 0 0 0
01-02-2019 15.4 (11:50) 11 (00:00) 13.2 15.28 (14:50) 7.5 (14:20) 0 0 0 0 0
31-01-2019 16.9 (21:10) 8.5 (00:00) 12.7 12.5 (11:10) 6.94 (21:00) 0 0 0 0 0
30-01-2019 13.4 (13:50) 5 (00:00) 9.2 8.89 (05:50) 5.28 (05:00) 0 0 0 0 0
29-01-2019 9.5 (14:30) 4 (00:00) 6.8 9.17 (19:40) 5 (07:20) 0 0 0 0 0
28-01-2019 13.5 (13:30) 5.2 (00:00) 9.3 10.83 (15:30) 4.44 (23:59) 0 0 0 0 0
27-01-2019 14.5 (15:10) 7.4 (00:00) 11 7.5 (14:40) 4.17 (07:40) 0 0 0 0 0
26-01-2019 16.5 (14:00) 7.6 (00:00) 12 9.17 (16:30) 5 (09:30) 0 0 0 0 0
25-01-2019 15.1 (15:10) 4.3 (00:00) 9.7 7.5 (04:40) 4.72 (02:40) 0 0 0 0 0
24-01-2019 14.2 (15:30) 2.4 (00:00) 8.3 12.78 (13:40) 5.56 (13:30) 0 0 0 0 0
23-01-2019 11.6 (14:10) 3.6 (00:00) 7.6 10.28 (20:10) 6.11 (06:40) 0 0 0 0 0
22-01-2019 11.3 (13:50) 2.7 (00:00) 7 9.17 (08:30) 5.56 (06:00) 0 0 0 0 0
21-01-2019 13.2 (14:50) 5 (00:00) 9.1 8.89 (23:40) 5.83 (21:30) 0 0 0 0 0
20-01-2019 9.3 (01:50) 7 (00:00) 8.2 9.17 (19:00) 5 (11:00) 13.4 0.2 13 0.2 0
19-01-2019 14.2 (14:30) 5.9 (00:00) 10 6.94 (18:10) 4.44 (07:40) 0.6 0.6 0 0 0

Gráficas

Temp. máximas Temp. mínimas Temp. medias Precipitaciones Rachas de viento máximas Velocidades máximas media en intervalos de 10 minutos

Datos horarios

Fecha y hora oficial Temperatura (ºC) Velocidad del viento (km/h) Dirección del viento Racha (km/h) Dirección de racha Precipitación (mm) Presión (hPa) Tendencia (hPa) Humedad (%)
2019-02-17 23:00:00 10.9 6 Oeste 13 Oeste 0 -- -- 90
2019-02-17 22:00:00 10.6 8 Sudoeste 18 Sur 0 -- -- 90
2019-02-17 21:00:00 10.7 7 Sur 16 Sur 0 -- -- 91
2019-02-17 20:00:00 11.1 8 Sudoeste 13 Sur 0 -- -- 93
2019-02-17 19:00:00 11.3 10 Sudoeste 16 Sur 0 -- -- 90
2019-02-17 18:00:00 12.5 7 Sur 18 Sur 0 -- -- 84
2019-02-17 17:00:00 14.7 9 Sur 21 Sur 0 -- -- 76
2019-02-17 16:00:00 16 10 Sur 22 Sudoeste 0 -- -- 74
2019-02-17 15:00:00 15.1 11 Sur 18 Sur 0 -- -- 77
2019-02-17 14:00:00 14.7 7 Sudeste 10 Sudeste 0 -- -- 73
2019-02-17 13:00:00 15.4 6 Sur 10 Sur 0 -- -- 70
2019-02-17 12:00:00 15.5 7 Sur 14 Sur 0 -- -- 71
2019-02-17 11:00:00 13.1 8 Sudoeste 16 Sudoeste 0 -- -- 78
2019-02-17 10:00:00 11.3 9 Oeste 17 Oeste 0 -- -- 90
2019-02-17 09:00:00 9.2 10 Oeste 15 Oeste 0 -- -- 98
2019-02-17 08:00:00 8.6 9 Oeste 14 Sudoeste 0 -- -- 99
2019-02-17 07:00:00 8 4 Sudoeste 9 Sudoeste 0 -- -- 98
2019-02-17 06:00:00 8.4 5 Sudoeste 16 Oeste 0 -- -- 98
2019-02-17 05:00:00 8.3 6 Oeste 10 Sudoeste 0 -- -- 98
2019-02-17 04:00:00 7.7 0 Calma 7 Oeste 0 -- -- 98
2019-02-17 03:00:00 8.1 5 Oeste 10 Sudoeste 0 -- -- 98
2019-02-17 02:00:00 8.6 6 Oeste 10 Oeste 0 -- -- 98
2019-02-17 01:00:00 8.1 5 Oeste 8 Oeste 0 -- -- 97
2019-02-17 00:00:00 8.1 0 Calma 5 Oeste 0 -- -- 96
2019-02-16 23:00:00 8.5 2 Oeste 4 Oeste 0 -- -- 95
2019-02-16 22:00:00 9.1 0 Calma 3 Este 0 -- -- 95
2019-02-16 21:00:00 9.4 3 Sudeste 8 Sur 0 -- -- 94
2019-02-16 20:00:00 9.7 4 Sudoeste 9 Sudoeste 0 -- -- 92
2019-02-16 19:00:00 10.6 6 Sudoeste 11 Sur 0 -- -- 88
2019-02-16 18:00:00 12.2 6 Sur 12 Sur 0 -- -- 82
2019-02-16 17:00:00 13.9 6 Sur 10 Sur 0 -- -- 77
2019-02-16 16:00:00 13.6 6 Sur 14 Sudeste 0 -- -- 81
2019-02-16 15:00:00 14.5 8 Sur 15 Sudeste 0 -- -- 77
2019-02-16 14:00:00 14.7 8 Sudeste 14 Sudeste 0 -- -- 72
2019-02-16 13:00:00 14.1 5 Sudeste 11 Este 0 -- -- 73
2019-02-16 12:00:00 13.2 6 Sudeste 11 Sudeste 0 -- -- 73
2019-02-16 11:00:00 12.8 5 Sudeste 8 Sudeste 0 -- -- 79
2019-02-16 10:00:00 10.9 3 Nordeste 8 Noroeste 0 -- -- 80
2019-02-16 09:00:00 8.1 5 Norte 9 Noroeste 0 -- -- 88
2019-02-16 08:00:00 6.3 7 Norte 16 Noroeste 0 -- -- 90
2019-02-16 07:00:00 7.6 14 Noroeste 21 Noroeste 0 -- -- 86
2019-02-16 06:00:00 6.8 9 Noroeste 12 Noroeste 0 -- -- 91
2019-02-16 05:00:00 6.5 4 Norte 6 Noroeste 0 -- -- 90
2019-02-16 04:00:00 7 2 Norte 10 Noroeste 0 -- -- 86
2019-02-16 03:00:00 7.5 0 Calma 11 Noroeste 0 -- -- 83
2019-02-16 02:00:00 8.8 5 Noroeste 15 Noroeste 0 -- -- 83
2019-02-16 01:00:00 9.2 10 Noroeste 16 Oeste 0 -- -- 87
2019-02-16 00:00:00 8.5 10 Noroeste 17 Noroeste 0 -- -- 82
2019-02-15 23:00:00 8.3 3 Noroeste 6 Oeste 0 -- -- 88
2019-02-15 22:00:00 9 2 Sudeste 14 Sudoeste 0 -- -- 87
2019-02-15 21:00:00 9.5 5 Oeste 15 Sudoeste 0 -- -- 88
2019-02-15 20:00:00 10.3 9 Sudoeste 24 Sur 0 -- -- 88
2019-02-15 19:00:00 10.6 13 Sudoeste 22 Sudoeste 0 -- -- 88
2019-02-15 18:00:00 11.7 12 Sudoeste 23 Sur 0 -- -- 82
2019-02-15 17:00:00 13.8 9 Sur 30 Sur 0 -- -- 75
2019-02-15 16:00:00 14 19 Sur 33 Sur 0 -- -- 72
2019-02-15 15:00:00 14.9 14 Sur 27 Sudoeste 0 -- -- 66
2019-02-15 14:00:00 16 10 Sur 24 Sudoeste 0 -- -- 66
2019-02-15 13:00:00 15.8 9 Sur 19 Sur 0 -- -- 65
2019-02-15 12:00:00 14.8 12 Sur 20 Sur 0 -- -- 64
2019-02-15 11:00:00 12.4 8 Sudoeste 21 Oeste 0 -- -- 64
2019-02-15 10:00:00 11 8 Sudoeste 17 Oeste 0 -- -- 64
2019-02-15 09:00:00 8.8 6 Sudoeste 14 Oeste 0 -- -- 75
2019-02-15 08:00:00 6.6 0 Calma 12 Sudoeste 0 -- -- 75
2019-02-15 07:00:00 7 5 Sudoeste 13 Oeste 0 -- -- 72
2019-02-15 06:00:00 7.1 6 Oeste 13 Oeste 0 -- -- 70
2019-02-15 05:00:00 7.8 10 Oeste 23 Sudoeste 0 -- -- 71
2019-02-15 04:00:00 8 12 Oeste 21 Sudoeste 0 -- -- 76
2019-02-15 03:00:00 8.5 13 Oeste 23 Sudoeste 0 -- -- 78
2019-02-15 02:00:00 8.1 11 Oeste 20 Sudoeste 0 -- -- 76
2019-02-15 01:00:00 8.3 6 Oeste 24 Oeste 0 -- -- 77
2019-02-15 00:00:00 8.5 7 Oeste 18 Sudoeste 0 -- -- 80
2019-02-14 23:00:00 9 8 Oeste 16 Sudoeste 0 -- -- 82
2019-02-14 22:00:00 9.6 9 Oeste 20 Sudoeste 0 -- -- 84
2019-02-14 21:00:00 9.9 10 Sudoeste 30 Sur 0 -- -- 81
2019-02-14 20:00:00 10.6 14 Sudoeste 34 Sudoeste 0 -- -- 79
2019-02-14 19:00:00 10.9 13 Sur 37 Sudoeste 0 -- -- 76
2019-02-14 18:00:00 11.5 26 Sudoeste 40 Sudoeste 0 -- -- 73
2019-02-14 17:00:00 13.6 16 Sur 30 Sudoeste 0 -- -- 68
2019-02-14 16:00:00 14.7 14 Sur 34 Sur 0 -- -- 66
2019-02-14 15:00:00 15.5 18 Sur 29 Sudoeste 0 -- -- 62
2019-02-14 14:00:00 15.4 12 Sur 32 Sur 0 -- -- 64
2019-02-14 13:00:00 14.9 20 Sur 28 Sudoeste 0 -- -- 64
2019-02-14 12:00:00 14.1 9 Sur 22 Sur 0 -- -- 68
2019-02-14 11:00:00 12.6 6 Sudoeste 15 Sudoeste 0 -- -- 69
2019-02-14 10:00:00 11.2 5 Sudoeste 11 Oeste 0 -- -- 72
2019-02-14 09:00:00 8.5 2 Nordeste 6 Noroeste 0 -- -- 87
2019-02-14 08:00:00 6.6 6 Noroeste 9 Noroeste 0 -- -- 89
2019-02-14 07:00:00 7.1 5 Este 10 Noroeste 0 -- -- 89
2019-02-14 06:00:00 7 8 Noroeste 12 Noroeste 0 -- -- 88
2019-02-14 05:00:00 7 4 Sudoeste 11 Oeste 0 -- -- 90
2019-02-14 04:00:00 7.4 2 Oeste 10 Noroeste 0 -- -- 88
2019-02-14 03:00:00 8 6 Noroeste 17 Noroeste 0 -- -- 86
2019-02-14 02:00:00 8.3 6 Noroeste 15 Noroeste 0 -- -- 83
2019-02-14 01:00:00 8.5 11 Noroeste 15 Noroeste 0 -- -- 82
2019-02-14 00:00:00 9.3 10 Noroeste 17 Noroeste 0 -- -- 77
2019-02-13 23:00:00 9.1 12 Noroeste 16 Noroeste 0 -- -- 78
2019-02-13 22:00:00 9.3 2 Noroeste 10 Oeste 0 -- -- 82
2019-02-13 21:00:00 10 6 Oeste 14 Oeste 0 -- -- 81
2019-02-13 20:00:00 10.3 7 Sudoeste 14 Sudoeste 0 -- -- 77
2019-02-13 19:00:00 10.8 7 Oeste 21 Sudoeste 0 -- -- 77
2019-02-13 18:00:00 11.9 10 Sur 18 Sudoeste 0 -- -- 68
2019-02-13 17:00:00 14.2 7 Sur 13 Sudeste 0 -- -- 68
2019-02-13 16:00:00 14.7 8 Sur 16 Sudeste 0 -- -- 60
2019-02-13 15:00:00 15.4 6 Sudeste 13 Sudeste 0 -- -- 53
2019-02-13 14:00:00 15.6 8 Sudeste 15 Nordeste 0 -- -- 53
2019-02-13 13:00:00 13 11 Este 19 Este 0 -- -- 56
2019-02-13 12:00:00 12.8 16 Este 21 Este 0 -- -- 50
2019-02-13 11:00:00 13.4 8 Este 18 Sudeste 0 -- -- 55
2019-02-13 10:00:00 11 6 Norte 14 Norte 0 -- -- 60
2019-02-13 09:00:00 8.4 11 Norte 18 Norte 0 -- -- 63
2019-02-13 08:00:00 7.9 7 Norte 17 Nordeste 0 -- -- 73
2019-02-13 07:00:00 7.7 12 Norte 18 Nordeste 0 -- -- 72
2019-02-13 06:00:00 7.6 9 Noroeste 22 Norte 0 -- -- 57
2019-02-13 05:00:00 7.3 15 Norte 22 Norte 0 -- -- 60
2019-02-13 04:00:00 7.7 10 Noroeste 12 Noroeste 0 -- -- 61
2019-02-13 03:00:00 8.3 5 Norte 16 Noroeste 0 -- -- 49
2019-02-13 02:00:00 9.2 7 Norte 16 Noroeste 0 -- -- 44
2019-02-13 01:00:00 9.1 8 Norte 26 Noroeste 0 -- -- 45
2019-02-13 00:00:00 10.3 10 Noroeste 23 Noroeste 0 -- -- 44
2019-02-12 23:00:00 10.1 18 Noroeste 25 Noroeste 0 -- -- 49
2019-02-12 22:00:00 11.5 16 Noroeste 29 Noroeste 0 -- -- 49
2019-02-12 21:00:00 11.4 15 Noroeste 19 Noroeste 0 -- -- 59
2019-02-12 20:00:00 11 6 Oeste 18 Oeste 0 -- -- 69
2019-02-12 19:00:00 11.5 9 Oeste 22 Sudoeste 0 -- -- 72
2019-02-12 18:00:00 12.1 13 Oeste 27 Sudoeste 0 -- -- 74
2019-02-12 17:00:00 13.5 10 Sudoeste 30 Sudoeste 0 -- -- 65
2019-02-12 16:00:00 14.3 13 Sudoeste 33 Sudoeste 0 -- -- 60
2019-02-12 15:00:00 15.2 15 Sur 27 Sur 0 -- -- 53
2019-02-12 14:00:00 15.4 16 Sur 28 Sudoeste 0 -- -- 56
2019-02-12 13:00:00 15.6 13 Sur 19 Sudoeste 0 -- -- 55
2019-02-12 12:00:00 14.2 9 Sur 16 Sur 0 -- -- 64
2019-02-12 11:00:00 11.9 8 Oeste 17 Noroeste 0 -- -- 64
2019-02-12 10:00:00 9.7 9 Noroeste 24 Noroeste 0 -- -- 63
2019-02-12 09:00:00 7.5 17 Noroeste 24 Noroeste 0 -- -- 72
2019-02-12 08:00:00 5.5 10 Noroeste 18 Noroeste 0 -- -- 82
2019-02-12 07:00:00 6 14 Noroeste 26 Noroeste 0 -- -- 77
2019-02-12 06:00:00 7.1 12 Norte 22 Noroeste 0 -- -- 69
2019-02-12 05:00:00 7.5 12 Norte 24 Norte 0 -- -- 67
2019-02-12 04:00:00 8 18 Norte 27 Noroeste 0 -- -- 64
2019-02-12 03:00:00 8.1 15 Norte 27 Norte 0 -- -- 64
2019-02-12 02:00:00 8.7 15 Norte 29 Norte 0 -- -- 60
2019-02-12 01:00:00 9.5 13 Norte 25 Norte 0 -- -- 59
2019-02-12 00:00:00 10 17 Norte 23 Norte 0 -- -- 56
2019-02-11 23:00:00 10.1 11 Noroeste 16 Noroeste 0 -- -- 59
2019-02-11 22:00:00 10.3 9 Norte 17 Norte 0 -- -- 59
2019-02-11 21:00:00 11 12 Norte 19 Norte 0 -- -- 60
2019-02-11 20:00:00 11.7 8 Sur 13 Sur 0 -- -- 79
2019-02-11 19:00:00 11.2 4 Sudeste 12 Sur 0 -- -- 80
2019-02-11 18:00:00 12.1 6 Sur 13 Sur 0 -- -- 76
2019-02-11 17:00:00 12.8 5 Sur 15 Sudoeste 0 -- -- 71
2019-02-11 16:00:00 15.1 9 Sur 27 Sur 0 -- -- 61
2019-02-11 15:00:00 15.4 12 Sur 35 Sur 0 -- -- 60
2019-02-11 14:00:00 15.1 13 Sur 28 Sudoeste 0 -- -- 60
2019-02-11 13:00:00 14 5 Sur 9 Sudeste 0 -- -- 62
2019-02-11 12:00:00 14.4 5 Sudeste 8 Sudeste 0 -- -- 56
2019-02-11 11:00:00 13 5 Sur 11 Norte 0 -- -- 59
2019-02-11 10:00:00 10.6 8 Norte 19 Norte 0 -- -- 58
2019-02-11 09:00:00 10.1 13 Norte 19 Norte 0 -- -- 55
2019-02-11 08:00:00 9.9 9 Norte 19 Noroeste 0 -- -- 59
2019-02-11 07:00:00 10.7 8 Norte 16 Norte 0 -- -- 54
2019-02-11 06:00:00 10.7 12 Norte 18 Norte 0 -- -- 59
2019-02-11 05:00:00 10.7 4 Noroeste 22 Norte 0 -- -- 63
2019-02-11 04:00:00 11.1 10 Norte 15 Norte 0 -- -- 65
2019-02-11 03:00:00 11.3 6 Noroeste 10 Noroeste 0 -- -- 73
2019-02-11 02:00:00 11.5 0 Calma 7 Norte 0 -- -- 75
2019-02-11 01:00:00 11.8 4 Norte 8 Sudoeste 0 -- -- 78
2019-02-11 00:00:00 12.1 3 Norte 15 Este 0 -- -- 72
2019-02-10 23:00:00 12.5 9 Este 19 Sudeste 0 -- -- 80
2019-02-10 22:00:00 12.6 11 Este 22 Este 0 -- -- 87
2019-02-10 21:00:00 12.3 13 Este 23 Sudeste 0 -- -- 93
2019-02-10 20:00:00 12.1 12 Nordeste 26 Este 0 -- -- 93
2019-02-10 19:00:00 12.1 15 Este 28 Este 0 -- -- 91
2019-02-10 18:00:00 12.3 20 Este 31 Este 0 -- -- 89
2019-02-10 17:00:00 13.2 17 Este 30 Este 0 -- -- 84
2019-02-10 16:00:00 18 10 Este 23 Oeste 0 -- -- 55
2019-02-10 15:00:00 18.2 9 Sudoeste 33 Oeste 0 -- -- 44
2019-02-10 14:00:00 18.2 15 Oeste 44 Oeste 0 -- -- 40
2019-02-10 13:00:00 14.8 19 Sudoeste 59 Sur 0 -- -- 71
2019-02-10 12:00:00 15.9 18 Sudoeste 46 Sudoeste 0 -- -- 52
2019-02-10 11:00:00 14.7 16 Sudoeste 49 Sudoeste 0 -- -- 56
2019-02-10 10:00:00 13.3 21 Sudoeste 54 Sudoeste 0 -- -- 56
2019-02-10 09:00:00 12.2 26 Sudoeste 54 Oeste 0 -- -- 61
2019-02-10 08:00:00 11.7 21 Sudoeste 48 Sudoeste 0 -- -- 66
2019-02-10 07:00:00 11.6 20 Sudoeste 44 Sudoeste 0 -- -- 69
2019-02-10 06:00:00 12 17 Sudoeste 37 Sudoeste 0 -- -- 69
2019-02-10 05:00:00 12.1 15 Sudoeste 33 Oeste 0 -- -- 66
2019-02-10 04:00:00 11.9 9 Sudoeste 31 Sudoeste 0 -- -- 70
2019-02-10 03:00:00 11.5 22 Sudoeste 39 Sur 0 -- -- 92
2019-02-10 02:00:00 11.3 16 Sur 35 Sudoeste 0 -- -- 94
2019-02-10 01:00:00 11.3 12 Sudoeste 34 Sudoeste 0 -- -- 95
2019-02-10 00:00:00 11.2 15 Sudoeste 34 Oeste 0 -- -- 95
2019-02-09 23:00:00 10.9 11 Sudoeste 21 Sudoeste 0 -- -- 94
2019-02-09 22:00:00 10.9 8 Oeste 15 Oeste 0 -- -- 92
2019-02-09 21:00:00 11.2 6 Sudoeste 22 Sudoeste 0 -- -- 91
2019-02-09 20:00:00 11.8 12 Sudoeste 21 Sur 0 -- -- 90
2019-02-09 19:00:00 11.5 7 Sur 17 Sudoeste 0 -- -- 89
2019-02-09 18:00:00 12.8 8 Sur 13 Sudoeste 0 -- -- 80
2019-02-09 17:00:00 15.2 7 Sur 14 Sudoeste 0 -- -- 71
2019-02-09 16:00:00 16.8 6 Sur 13 Sudoeste 0 -- -- 67
2019-02-09 15:00:00 17.2 8 Sur 15 Sudoeste 0 -- -- 63
2019-02-09 14:00:00 17.3 8 Sur 13 Sur 0 -- -- 65
2019-02-09 13:00:00 17 7 Sur 14 Sur 0 -- -- 64
2019-02-09 12:00:00 15.6 8 Sur 14 Sur 0 -- -- 67
2019-02-09 11:00:00 11.9 4 Norte 15 Noroeste 0 -- -- 80
2019-02-09 10:00:00 10.2 6 Noroeste 13 Noroeste 0 -- -- 85
2019-02-09 09:00:00 9 2 Sudeste 18 Oeste 0 -- -- 88
2019-02-09 08:00:00 8.4 13 Noroeste 22 Noroeste 0 -- -- 89
2019-02-09 07:00:00 8.4 8 Norte 20 Norte 0 -- -- 91
2019-02-09 06:00:00 8.7 12 Norte 21 Noroeste 0 -- -- 90
2019-02-09 05:00:00 8.9 10 Noroeste 13 Noroeste 0 -- -- 89
2019-02-09 04:00:00 8.8 6 Norte 13 Norte 0 -- -- 88
2019-02-09 03:00:00 8.9 8 Noroeste 24 Noroeste 0 -- -- 83
2019-02-09 02:00:00 8.9 6 Norte 10 Norte 0 -- -- 87
2019-02-09 01:00:00 9.2 6 Norte 9 Norte 0 -- -- 89
2019-02-09 00:00:00 9.7 4 Oeste 14 Oeste 0 -- -- 89
2019-02-08 23:00:00 10 6 Sudoeste 12 Sudoeste 0 -- -- 88
2019-02-08 22:00:00 11.2 6 Noroeste 17 Sudoeste 0 -- -- 87
2019-02-08 21:00:00 11.5 9 Oeste 31 Sudoeste 0 -- -- 91
2019-02-08 20:00:00 11.8 14 Oeste 46 Oeste 0 -- -- 91
2019-02-08 19:00:00 12.1 21 Sudoeste 53 Sudoeste 0 -- -- 90
2019-02-08 18:00:00 12.4 18 Sudoeste 46 Sudoeste 0 -- -- 89
2019-02-08 17:00:00 13.4 18 Sudoeste 47 Sudoeste 0 -- -- 86
2019-02-08 16:00:00 14.2 18 Sudoeste 42 Oeste 0 -- -- 80
2019-02-08 15:00:00 14.5 14 Sudoeste 43 Sur 0 -- -- 75
2019-02-08 14:00:00 15.2 24 Sur 43 Sudoeste 0 -- -- 63
2019-02-08 13:00:00 14.5 6 Sudeste 14 Sudeste 0 -- -- 67
2019-02-08 12:00:00 13.1 6 Sur 16 Sudoeste 0 -- -- 72
2019-02-08 11:00:00 11.5 6 Oeste 18 Noroeste 0 -- -- 81
2019-02-08 10:00:00 9.2 14 Noroeste 23 Noroeste 0 -- -- 89
2019-02-08 09:00:00 8.7 13 Noroeste 17 Noroeste 0 -- -- 91
2019-02-08 08:00:00 9.3 6 Oeste 12 Oeste 0 -- -- 94
2019-02-08 07:00:00 10.3 5 Noroeste 18 Sudoeste 0 -- -- 94
2019-02-08 06:00:00 10.6 0 Calma 9 Sudoeste 0 -- -- 94
2019-02-08 05:00:00 10.7 5 Sudoeste 9 Sudoeste 0 -- -- 94
2019-02-08 04:00:00 10.6 6 Oeste 11 Oeste 0 -- -- 92
2019-02-08 03:00:00 10.5 3 Este 9 Oeste 0 -- -- 89
2019-02-08 02:00:00 10.5 4 Sudoeste 10 Sudoeste 0 -- -- 89
2019-02-08 01:00:00 10.9 4 Este 9 Oeste 0 -- -- 91
2019-02-08 00:00:00 10.7 6 Oeste 14 Oeste 0 -- -- 92
2019-02-07 23:00:00 10.1 3 Noroeste 9 Oeste 0 -- -- 95
2019-02-07 22:00:00 10.1 0 Calma 6 Sudoeste 0 -- -- 95
2019-02-07 21:00:00 9.9 3 Sudoeste 6 Sudoeste 0 -- -- 94
2019-02-07 20:00:00 10 5 Sudoeste 6 Oeste 0 -- -- 92
2019-02-07 19:00:00 10.8 0 Calma 4 Sudeste 0 -- -- 88
2019-02-07 18:00:00 12.2 0 Calma 6 Sudeste 0 -- -- 83
2019-02-07 17:00:00 13.8 5 Sur 11 Sur 0 -- -- 77
2019-02-07 16:00:00 14.3 6 Sur 11 Sur 0 -- -- 78
2019-02-07 15:00:00 14.2 5 Sur 13 Sur 0 -- -- 81
2019-02-07 14:00:00 13.7 5 Sur 10 Sur 0 -- -- 81
2019-02-07 13:00:00 13 4 Sur 8 Sur 0 -- -- 84
2019-02-07 12:00:00 13.2 6 Sur 9 Sudeste 0 -- -- 81
2019-02-07 11:00:00 12.4 4 Sur 9 Nordeste 0 -- -- 83
2019-02-07 10:00:00 10.1 7 Este 12 Este 0 -- -- 92
2019-02-07 09:00:00 9.3 7 Norte 14 Norte 0 -- -- 93
2019-02-07 08:00:00 8.5 6 Norte 15 Noroeste 0 -- -- 95
2019-02-07 07:00:00 7.5 4 Norte 14 Norte 0 -- -- 94
2019-02-07 06:00:00 7.7 9 Noroeste 19 Noroeste 0 -- -- 90
2019-02-07 05:00:00 8.7 14 Noroeste 21 Noroeste 0 -- -- 89
2019-02-07 04:00:00 9 9 Noroeste 16 Noroeste 0 -- -- 93
2019-02-07 03:00:00 9.8 11 Noroeste 13 Noroeste 0 -- -- 94
2019-02-07 02:00:00 10 9 Noroeste 12 Noroeste 0 -- -- 93
2019-02-07 01:00:00 10.5 6 Noroeste 11 Oeste 0 -- -- 92
2019-02-07 00:00:00 9.9 10 Noroeste 18 Noroeste 0 -- -- 94
2019-02-06 23:00:00 10.4 9 Noroeste 13 Noroeste 0 -- -- 93
2019-02-06 22:00:00 10.5 5 Oeste 8 Sudoeste 0 -- -- 91
2019-02-06 21:00:00 11.1 5 Oeste 13 Sudoeste 0 -- -- 91
2019-02-06 20:00:00 11.8 11 Sudoeste 17 Sudoeste 0 -- -- 90
2019-02-06 19:00:00 11.9 10 Sur 21 Sudoeste 0 -- -- 89
2019-02-06 18:00:00 12.8 6 Sur 12 Sur 0 -- -- 81
2019-02-06 17:00:00 14.7 6 Sur 12 Sur 0 -- -- 77
2019-02-06 16:00:00 15 6 Sudeste 12 Sur 0 -- -- 76
2019-02-06 15:00:00 14.8 8 Sudeste 12 Sudeste 0 -- -- 76
2019-02-06 14:00:00 14.8 8 Sur 11 Sudeste 0 -- -- 67
2019-02-06 13:00:00 14.7 6 Sudeste 9 Sudeste 0 -- -- 62
2019-02-06 12:00:00 15.1 5 Sudeste 10 Sudeste 0 -- -- 57
2019-02-06 11:00:00 14.6 4 Nordeste 8 Este 0 -- -- 58
2019-02-06 10:00:00 12.2 5 Noroeste 10 Norte 0 -- -- 66
2019-02-06 09:00:00 9.8 5 Noroeste 9 Noroeste 0 -- -- 72
2019-02-06 08:00:00 9.1 2 Norte 8 Norte 0 -- -- 70
2019-02-06 07:00:00 8.6 7 Norte 10 Norte 0 -- -- 70
2019-02-06 06:00:00 9.7 9 Norte 24 Noroeste 0 -- -- 64
2019-02-06 05:00:00 9.8 17 Noroeste 28 Noroeste 0 -- -- 63
2019-02-06 04:00:00 9.7 18 Noroeste 26 Noroeste 0 -- -- 64
2019-02-06 03:00:00 10.4 13 Noroeste 20 Noroeste 0 -- -- 60
2019-02-06 02:00:00 10.9 13 Noroeste 19 Oeste 0 -- -- 57
2019-02-06 01:00:00 9.8 10 Noroeste 17 Noroeste 0 -- -- 61
2019-02-06 00:00:00 10.7 3 Noroeste 16 Noroeste 0 -- -- 63
2019-02-05 23:00:00 11.5 5 Noroeste 19 Noroeste 0 -- -- 59
2019-02-05 22:00:00 11.4 11 Noroeste 19 Noroeste 0 -- -- 60
2019-02-05 21:00:00 10.3 6 Noroeste 13 Noroeste 0 -- -- 67
2019-02-05 20:00:00 10.5 5 Oeste 9 Oeste 0 -- -- 75
2019-02-05 19:00:00 11.2 5 Sudoeste 14 Oeste 0 -- -- 75
2019-02-05 18:00:00 12.7 3 Sudoeste 10 Sudoeste 0 -- -- 60
2019-02-05 17:00:00 14.2 7 Sur 15 Sudoeste 0 -- -- 56
2019-02-05 16:00:00 14.9 8 Sur 14 Sur 0 -- -- 54
2019-02-05 15:00:00 15.2 8 Sur 16 Sur 0 -- -- 52
2019-02-05 14:00:00 15.5 9 Sur 15 Sudoeste 0 -- -- 49
2019-02-05 13:00:00 15.5 7 Sur 13 Sudoeste 0 -- -- 46
2019-02-05 12:00:00 11.4 7 Noroeste 17 Noroeste 0 -- -- 49
2019-02-05 11:00:00 10 9 Noroeste 19 Noroeste 0 -- -- 50
2019-02-05 10:00:00 8.3 10 Noroeste 22 Noroeste 0 -- -- 55
2019-02-05 09:00:00 7.9 10 Noroeste 21 Noroeste 0 -- -- 48
2019-02-05 08:00:00 7.4 15 Noroeste 23 Noroeste 0 -- -- 48
2019-02-05 07:00:00 7.8 10 Noroeste 23 Noroeste 0 -- -- 46
2019-02-05 06:00:00 7.9 10 Noroeste 17 Noroeste 0 -- -- 42
2019-02-05 05:00:00 8.1 10 Noroeste 18 Noroeste 0 -- -- 47
2019-02-05 04:00:00 7.9 12 Noroeste 18 Noroeste 0 -- -- 50
2019-02-05 03:00:00 8.2 9 Noroeste 18 Noroeste 0 -- -- 50
2019-02-05 02:00:00 8.3 9 Noroeste 13 Noroeste 0 -- -- 49
2019-02-05 01:00:00 8.4 7 Noroeste 12 Noroeste 0 -- -- 48
2019-02-05 00:00:00 8.7 7 Noroeste 13 Noroeste 0 -- -- 52
2019-02-04 23:00:00 8.4 3 Oeste 6 Sudoeste 0 -- -- 54
2019-02-04 22:00:00 8.9 4 Sudoeste 12 Oeste 0 -- -- 51
2019-02-04 21:00:00 9 6 Oeste 13 Oeste 0 -- -- 48
2019-02-04 20:00:00 9.1 7 Oeste 13 Sudoeste 0 -- -- 44
2019-02-04 19:00:00 9.4 6 Oeste 17 Sur 0 -- -- 41
2019-02-04 18:00:00 9.8 11 Sudoeste 19 Sur 0 -- -- 40
2019-02-04 17:00:00 11.6 10 Sur 19 Sudoeste 0 -- -- 35
2019-02-04 16:00:00 12.6 7 Sur 15 Sudoeste 0 -- -- 37
2019-02-04 15:00:00 13.2 8 Sur 17 Sudoeste 0 -- -- 36
2019-02-04 14:00:00 13.1 7 Sur 16 Sudoeste 0 -- -- 40
2019-02-04 13:00:00 13.1 8 Sur 18 Sur 0 -- -- 39
2019-02-04 12:00:00 11.2 8 Sudoeste 17 Oeste 0 -- -- 40
2019-02-04 11:00:00 10.6 4 Sudoeste 10 Noroeste 0 -- -- 39
2019-02-04 10:00:00 7.8 4 Noroeste 16 Norte 0 -- -- 40
2019-02-04 09:00:00 4.9 12 Noroeste 27 Norte 0 -- -- 32
2019-02-04 08:00:00 4.3 16 Noroeste 23 Noroeste 0 -- -- 31
2019-02-04 07:00:00 5.5 13 Noroeste 21 Noroeste 0 -- -- 27
2019-02-04 06:00:00 5.5 15 Noroeste 27 Noroeste 0 -- -- 26
2019-02-04 05:00:00 4.4 13 Noroeste 23 Noroeste 0 -- -- 30
2019-02-04 04:00:00 4.7 15 Noroeste 31 Noroeste 0 -- -- 30
2019-02-04 03:00:00 5.6 18 Norte 24 Noroeste 0 -- -- 28
2019-02-04 02:00:00 5.3 13 Noroeste 19 Noroeste 0 -- -- 30
2019-02-04 01:00:00 6.3 4 Noroeste 17 Nordeste 0 -- -- 29
2019-02-04 00:00:00 7.5 9 Noroeste 21 Noroeste 0 -- -- 25
2019-02-03 23:00:00 7.9 12 Noroeste 28 Noroeste 0 -- -- 24
2019-02-03 22:00:00 8.2 12 Noroeste 29 Norte 0 -- -- 25
2019-02-03 21:00:00 8.1 6 Norte 19 Oeste 0 -- -- 27
2019-02-03 20:00:00 8.8 9 Noroeste 22 Norte 0 -- -- 26
2019-02-03 19:00:00 9.9 9 Norte 22 Noroeste 0 -- -- 25
2019-02-03 18:00:00 11.2 8 Nordeste 24 Nordeste 0 -- -- 24
2019-02-03 17:00:00 13.3 7 Norte 21 Nordeste 0 -- -- 21
2019-02-03 16:00:00 13 8 Sudoeste 25 Sudoeste 0 -- -- 35
2019-02-03 15:00:00 12.8 10 Sur 32 Sur 0 -- -- 37
2019-02-03 14:00:00 12.6 12 Sudoeste 27 Sudoeste 0 -- -- 41
2019-02-03 13:00:00 12.3 12 Sudoeste 22 Sudoeste 0 -- -- 42
2019-02-03 12:00:00 9.9 12 Noroeste 23 Norte 0 -- -- 37
2019-02-03 11:00:00 8.5 5 Norte 14 Norte 0 -- -- 39
2019-02-03 10:00:00 6.2 6 Norte 22 Norte 0 -- -- 43
2019-02-03 09:00:00 4.9 16 Norte 22 Norte 0 -- -- 42
2019-02-03 08:00:00 4.3 13 Norte 21 Nordeste 0 -- -- 45
2019-02-03 07:00:00 5 11 Norte 22 Nordeste 0 -- -- 44
2019-02-03 06:00:00 5.1 10 Norte 23 Norte 0 -- -- 44
2019-02-03 05:00:00 5.3 9 Norte 22 Norte 0 -- -- 44
2019-02-03 04:00:00 5.6 11 Norte 18 Nordeste 0 -- -- 46
2019-02-03 03:00:00 5.8 12 Norte 21 Norte 0 -- -- 47
2019-02-03 02:00:00 5.7 10 Norte 14 Norte 0 -- -- 55
2019-02-03 01:00:00 6.3 5 Noroeste 21 Norte 0 -- -- 67
2019-02-03 00:00:00 7 15 Norte 26 Norte 0 -- -- 55
2019-02-02 23:00:00 7.3 15 Norte 21 Norte 0 -- -- 55
2019-02-02 22:00:00 7.7 13 Norte 20 Norte 0 -- -- 68
2019-02-02 21:00:00 7.7 10 Norte 18 Noroeste 0 -- -- 65
2019-02-02 20:00:00 8.1 11 Noroeste 19 Oeste 0 -- -- 67
2019-02-02 19:00:00 8.4 18 Oeste 34 Oeste 0 -- -- 70
2019-02-02 18:00:00 10.1 11 Sudoeste 19 Sur 0 -- -- 70
2019-02-02 17:00:00 10.6 5 Sudeste 13 Este 0 -- -- 68
2019-02-02 16:00:00 10.8 8 Este 18 Este 0 -- -- 66
2019-02-02 15:00:00 12.1 4 Sudeste 9 Sur 0 -- -- 62
2019-02-02 14:00:00 12.3 5 Sudeste 12 Sur 0 -- -- 61
2019-02-02 13:00:00 11.9 5 Sur 13 Sur 0 -- -- 63
2019-02-02 12:00:00 12.2 8 Sur 19 Sur 0 -- -- 59
2019-02-02 11:00:00 9.7 7 Oeste 19 Noroeste 0 -- -- 64
2019-02-02 10:00:00 8.3 8 Norte 18 Norte 0 -- -- 70
2019-02-02 09:00:00 7.3 13 Norte 22 Noroeste 0 -- -- 71
2019-02-02 08:00:00 5.5 15 Noroeste 24 Noroeste 0 -- -- 75
2019-02-02 07:00:00 6.3 8 Norte 14 Oeste 0 -- -- 74
2019-02-02 06:00:00 6.4 6 Oeste 18 Oeste 0 -- -- 73
2019-02-02 05:00:00 6.9 8 Oeste 25 Noroeste 0 -- -- 72
2019-02-02 04:00:00 7.6 11 Oeste 19 Oeste 0 -- -- 69
2019-02-02 03:00:00 8.1 8 Sudoeste 17 Oeste 0 -- -- 70
2019-02-02 02:00:00 8.7 13 Noroeste 31 Norte 0 -- -- 65
2019-02-02 01:00:00 9.4 11 Norte 32 Noroeste 0 -- -- 70
2019-02-02 00:00:00 11.5 24 Oeste 51 Sudoeste 0 -- -- 55
2019-02-01 23:00:00 11.4 11 Oeste 19 Oeste 0 -- -- 61
2019-02-01 22:00:00 11.4 6 Oeste 28 Oeste 0 -- -- 70
2019-02-01 21:00:00 11.9 13 Oeste 31 Oeste 0 -- -- 72
2019-02-01 20:00:00 12.2 17 Sudoeste 32 Sudoeste 0 -- -- 73
2019-02-01 19:00:00 12.6 15 Sudoeste 39 Sudoeste 0 -- -- 72
2019-02-01 18:00:00 13.6 20 Sur 36 Sudoeste 0 -- -- 75
2019-02-01 17:00:00 13.9 11 Sudoeste 38 Sur 0 -- -- 63
2019-02-01 16:00:00 14.2 18 Sudoeste 47 Sur 0 -- -- 74
2019-02-01 15:00:00 14.3 21 Sudoeste 55 Sudoeste 0 -- -- 74
2019-02-01 14:00:00 14.9 18 Sudoeste 51 Sur 0 -- -- 67
2019-02-01 13:00:00 14.6 18 Sur 45 Sudoeste 0 -- -- 69
2019-02-01 12:00:00 15 9 Sudoeste 32 Oeste 0 -- -- 61
2019-02-01 11:00:00 14.7 13 Oeste 33 Oeste 0 -- -- 69
2019-02-01 10:00:00 14 13 Sudoeste 36 Sudoeste 0 -- -- 87
2019-02-01 09:00:00 14 18 Sudoeste 39 Sudoeste 0 -- -- 84
2019-02-01 08:00:00 13.5 9 Sudoeste 20 Oeste 0 -- -- 78
2019-02-01 07:00:00 12.9 6 Oeste 23 Sudoeste 0 -- -- 83
2019-02-01 06:00:00 12.8 9 Oeste 34 Oeste 0 -- -- 88
2019-02-01 05:00:00 12.2 9 Oeste 19 Oeste 0 -- -- 86
2019-02-01 04:00:00 12.1 8 Oeste 19 Oeste 0 -- -- 88
2019-02-01 03:00:00 12.3 6 Sudoeste 22 Sur 0 -- -- 90
2019-02-01 02:00:00 12.3 8 Sudoeste 18 Sur 0 -- -- 90
2019-02-01 01:00:00 12.5 9 Sudoeste 21 Oeste 0 -- -- 87
2019-02-01 00:00:00 13.1 9 Sudoeste 31 Sudoeste 0 -- -- 79
2019-01-31 23:00:00 13.3 15 Sudoeste 40 Sur 0 -- -- 78
2019-01-31 22:00:00 14.3 14 Sudoeste 40 Oeste 0 -- -- 71
2019-01-31 21:00:00 16.8 25 Oeste 43 Noroeste 0 -- -- 54
2019-01-31 20:00:00 16.5 21 Oeste 43 Oeste 0 -- -- 55
2019-01-31 19:00:00 15 8 Oeste 33 Sudoeste 0 -- -- 61
2019-01-31 18:00:00 14.7 5 Nordeste 24 Noroeste 0 -- -- 63
2019-01-31 17:00:00 16.4 12 Oeste 29 Oeste 0 -- -- 54
2019-01-31 16:00:00 15.3 5 Este 10 Sur 0 -- -- 63
2019-01-31 15:00:00 14.4 4 Este 16 Este 0 -- -- 64
2019-01-31 14:00:00 15 9 Este 17 Oeste 0 -- -- 57
2019-01-31 13:00:00 12.4 6 Oeste 31 Sudoeste 0 -- -- 63
2019-01-31 12:00:00 12.2 8 Oeste 45 Oeste 0 -- -- 60
2019-01-31 11:00:00 13.5 9 Oeste 37 Sudoeste 0 -- -- 55
2019-01-31 10:00:00 11.1 13 Oeste 41 Sudoeste 0 -- -- 60
2019-01-31 09:00:00 10.2 14 Oeste 43 Oeste 0 -- -- 60
2019-01-31 08:00:00 9.1 17 Oeste 33 Noroeste 0 -- -- 62
2019-01-31 07:00:00 8.7 10 Oeste 32 Oeste 0 -- -- 61
2019-01-31 06:00:00 9.6 15 Sudoeste 32 Sudoeste 0 -- -- 56
2019-01-31 05:00:00 9.8 10 Oeste 22 Oeste 0 -- -- 50
2019-01-31 04:00:00 10.1 8 Sudoeste 31 Oeste 0 -- -- 48
2019-01-31 03:00:00 9.7 6 Sudoeste 26 Oeste 0 -- -- 48
2019-01-31 02:00:00 9.7 14 Oeste 30 Sudoeste 0 -- -- 47
2019-01-31 01:00:00 9.2 10 Oeste 28 Sudoeste 0 -- -- 49
2019-01-31 00:00:00 8.5 13 Sudoeste 27 Sudoeste 0 -- -- 54
2019-01-30 23:00:00 8.3 6 Noroeste 15 Oeste 0 -- -- 54
2019-01-30 22:00:00 8.6 6 Noroeste 17 Oeste 0 -- -- 59
2019-01-30 21:00:00 8.9 4 Oeste 16 Oeste 0 -- -- 59
2019-01-30 20:00:00 9.6 9 Oeste 17 Oeste 0 -- -- 56
2019-01-30 19:00:00 9.8 11 Noroeste 20 Noroeste 0 -- -- 60
2019-01-30 18:00:00 11 6 Noroeste 22 Sudoeste 0 -- -- 51
2019-01-30 17:00:00 12.3 9 Sur 18 Sur 0 -- -- 57
2019-01-30 16:00:00 12.5 6 Sur 15 Sudeste 0 -- -- 56
2019-01-30 15:00:00 13.2 9 Sur 17 Sur 0 -- -- 53
2019-01-30 14:00:00 13.4 10 Sur 19 Sudeste 0 -- -- 52
2019-01-30 13:00:00 12.6 9 Sur 22 Sur 0 -- -- 53
2019-01-30 12:00:00 12.6 12 Sur 20 Sudeste 0 -- -- 55
2019-01-30 11:00:00 10.8 4 Sudeste 21 Noroeste 0 -- -- 51
2019-01-30 10:00:00 7.8 10 Noroeste 23 Noroeste 0 -- -- 57
2019-01-30 09:00:00 6.5 14 Noroeste 28 Noroeste 0 -- -- 61
2019-01-30 08:00:00 5.1 12 Noroeste 20 Noroeste 0 -- -- 68
2019-01-30 07:00:00 6.3 12 Noroeste 31 Noroeste 0 -- -- 64
2019-01-30 06:00:00 7.1 17 Noroeste 32 Noroeste 0 -- -- 64
2019-01-30 05:00:00 6.9 19 Noroeste 31 Norte 0 -- -- 66
2019-01-30 04:00:00 6.4 14 Noroeste 29 Noroeste 0 -- -- 70
2019-01-30 03:00:00 7.5 15 Noroeste 29 Norte 0 -- -- 65
2019-01-30 02:00:00 7.6 15 Noroeste 23 Noroeste 0 -- -- 67
2019-01-30 01:00:00 7 12 Noroeste 23 Noroeste 0 -- -- 71
2019-01-30 00:00:00 6.7 7 Norte 14 Norte 0 -- -- 73
2019-01-29 23:00:00 6.8 10 Norte 14 Norte 0 -- -- 76
2019-01-29 22:00:00 7.1 6 Oeste 18 Sudoeste 0 -- -- 75
2019-01-29 21:00:00 8.2 8 Sudoeste 31 Oeste 0 -- -- 73
2019-01-29 20:00:00 8.7 18 Sur 33 Sur 0 -- -- 73
2019-01-29 19:00:00 8.5 12 Oeste 31 Sudoeste 0 -- -- 72
2019-01-29 18:00:00 8.7 13 Sudoeste 28 Oeste 0 -- -- 72
2019-01-29 17:00:00 9.2 9 Oeste 21 Sudoeste 0 -- -- 73
2019-01-29 16:00:00 9.4 9 Oeste 23 Sudoeste 0 -- -- 74
2019-01-29 15:00:00 9.5 10 Sudoeste 19 Sudoeste 0 -- -- 71
2019-01-29 14:00:00 9.4 8 Oeste 14 Oeste 0 -- -- 71
2019-01-29 13:00:00 8.7 5 Oeste 17 Noroeste 0 -- -- 70
2019-01-29 12:00:00 8.3 8 Noroeste 17 Noroeste 0 -- -- 70
2019-01-29 11:00:00 7.5 10 Noroeste 19 Noroeste 0 -- -- 72
2019-01-29 10:00:00 6.3 14 Noroeste 21 Noroeste 0 -- -- 73
2019-01-29 09:00:00 5.8 12 Noroeste 22 Noroeste 0 -- -- 73
2019-01-29 08:00:00 4.6 16 Noroeste 24 Noroeste 0 -- -- 75
2019-01-29 07:00:00 5.1 14 Noroeste 21 Noroeste 0 -- -- 72
2019-01-29 06:00:00 5.7 13 Noroeste 16 Noroeste 0 -- -- 71
2019-01-29 05:00:00 5.6 9 Noroeste 13 Noroeste 0 -- -- 71
2019-01-29 04:00:00 5.2 5 Noroeste 12 Noroeste 0 -- -- 73
2019-01-29 03:00:00 5.3 0 Calma 8 Noroeste 0 -- -- 75
2019-01-29 02:00:00 5.6 5 Noroeste 10 Norte 0 -- -- 70
2019-01-29 01:00:00 5.7 3 Sudoeste 19 Norte 0 -- -- 71
2019-01-29 00:00:00 6.6 16 Norte 21 Norte 0 -- -- 69
2019-01-28 23:00:00 6.7 10 Nordeste 15 Nordeste 0 -- -- 70
2019-01-28 22:00:00 6.5 2 Norte 17 Oeste 0 -- -- 71
2019-01-28 21:00:00 7.4 4 Sur 21 Oeste 0 -- -- 68
2019-01-28 20:00:00 8.3 6 Norte 21 Oeste 0 -- -- 66
2019-01-28 19:00:00 9.1 5 Sur 18 Noroeste 0 -- -- 63
2019-01-28 18:00:00 9.7 15 Noroeste 26 Noroeste 0 -- -- 64
2019-01-28 17:00:00 10.8 7 Norte 27 Nordeste 0 -- -- 62
2019-01-28 16:00:00 11.4 9 Norte 39 Nordeste 0 -- -- 62
2019-01-28 15:00:00 13.3 9 Norte 32 Norte 0 -- -- 51
2019-01-28 14:00:00 13 6 Sur 21 Sur 0 -- -- 53
2019-01-28 13:00:00 12.3 5 Norte 17 Sudoeste 0 -- -- 49
2019-01-28 12:00:00 11 10 Oeste 31 Noroeste 0 -- -- 51
2019-01-28 11:00:00 7.4 14 Noroeste 26 Norte 0 -- -- 55
2019-01-28 10:00:00 6.5 10 Noroeste 18 Noroeste 0 -- -- 58
2019-01-28 09:00:00 6 12 Noroeste 22 Noroeste 0 -- -- 60
2019-01-28 08:00:00 6 8 Noroeste 16 Noroeste 0 -- -- 66
2019-01-28 07:00:00 5.5 13 Noroeste 19 Noroeste 0 -- -- 67
2019-01-28 06:00:00 5.9 10 Noroeste 23 Noroeste 0 -- -- 67
2019-01-28 05:00:00 5.8 15 Noroeste 23 Noroeste 0 -- -- 67
2019-01-28 04:00:00 5.7 15 Noroeste 23 Noroeste 0 -- -- 69
2019-01-28 03:00:00 6.5 12 Noroeste 19 Norte 0 -- -- 64
2019-01-28 02:00:00 6.8 4 Norte 24 Noroeste 0 -- -- 72
2019-01-28 01:00:00 7.2 6 Oeste 14 Noroeste 0 -- -- 72
2019-01-28 00:00:00 8.1 8 Oeste 13 Noroeste 0 -- -- 71
2019-01-27 23:00:00 8.5 6 Oeste 20 Noroeste 0 -- -- 80
2019-01-27 22:00:00 8.6 5 Oeste 12 Noroeste 0 -- -- 79
2019-01-27 21:00:00 9.3 4 Noroeste 20 Nordeste 0 -- -- 78
2019-01-27 20:00:00 10.7 8 Nordeste 16 Nordeste 0 -- -- 85
2019-01-27 19:00:00 10.9 8 Nordeste 20 Este 0 -- -- 79
2019-01-27 18:00:00 11.6 11 Este 22 Este 0 -- -- 79
2019-01-27 17:00:00 12.8 15 Este 23 Este 0 -- -- 76
2019-01-27 16:00:00 13.2 3 Este 22 Nordeste 0 -- -- 73
2019-01-27 15:00:00 14.2 7 Norte 27 Noroeste 0 -- -- 64
2019-01-27 14:00:00 14.3 10 Oeste 18 Sudoeste 0 -- -- 63
2019-01-27 13:00:00 13 9 Noroeste 22 Sudoeste 0 -- -- 72
2019-01-27 12:00:00 13.3 5 Sur 13 Noroeste 0 -- -- 77
2019-01-27 11:00:00 10.6 8 Noroeste 20 Noroeste 0 -- -- 87
2019-01-27 10:00:00 9.2 10 Noroeste 18 Noroeste 0 -- -- 90
2019-01-27 09:00:00 8.7 14 Noroeste 22 Noroeste 0 -- -- 91
2019-01-27 08:00:00 8.3 14 Noroeste 23 Noroeste 0 -- -- 93
2019-01-27 07:00:00 7.5 13 Noroeste 19 Noroeste 0 -- -- 93
2019-01-27 06:00:00 8 10 Noroeste 16 Noroeste 0 -- -- 92
2019-01-27 05:00:00 7.8 10 Norte 18 Noroeste 0 -- -- 90
2019-01-27 04:00:00 8.2 10 Noroeste 13 Norte 0 -- -- 87
2019-01-27 03:00:00 8.7 12 Norte 18 Norte 0 -- -- 87
2019-01-27 02:00:00 9.2 10 Norte 21 Noroeste 0 -- -- 81
2019-01-27 01:00:00 9.4 9 Noroeste 14 Noroeste 0 -- -- 77
2019-01-27 00:00:00 9.7 8 Noroeste 15 Noroeste 0 -- -- 76
2019-01-26 23:00:00 10.2 9 Noroeste 16 Noroeste 0 -- -- 74
2019-01-26 22:00:00 10.8 7 Noroeste 14 Noroeste 0 -- -- 73
2019-01-26 21:00:00 11.5 6 Oeste 14 Noroeste 0 -- -- 72
2019-01-26 20:00:00 11.3 5 Sudoeste 21 Oeste 0 -- -- 82
2019-01-26 19:00:00 11.7 9 Oeste 21 Sudoeste 0 -- -- 85
2019-01-26 18:00:00 12.1 10 Sudoeste 28 Sur 0 -- -- 80
2019-01-26 17:00:00 13.3 13 Sudoeste 33 Sur 0 -- -- 72
2019-01-26 16:00:00 14.3 13 Sudoeste 27 Sudoeste 0 -- -- 65
2019-01-26 15:00:00 15.8 9 Sur 17 Sur 0 -- -- 62
2019-01-26 14:00:00 16.5 8 Sur 15 Sur 0 -- -- 61
2019-01-26 13:00:00 16 9 Sur 18 Sur 0 -- -- 62
2019-01-26 12:00:00 14.5 9 Oeste 14 Oeste 0 -- -- 52
2019-01-26 11:00:00 10.5 9 Noroeste 21 Noroeste 0 -- -- 63
2019-01-26 10:00:00 9.3 14 Noroeste 25 Norte 0 -- -- 61
2019-01-26 09:00:00 7.9 17 Norte 24 Norte 0 -- -- 62
2019-01-26 08:00:00 8.2 11 Norte 19 Norte 0 -- -- 61
2019-01-26 07:00:00 7.7 13 Norte 18 Norte 0 -- -- 61
2019-01-26 06:00:00 8.6 13 Norte 17 Noroeste 0 -- -- 63
2019-01-26 05:00:00 8.6 10 Noroeste 17 Noroeste 0 -- -- 60
2019-01-26 04:00:00 8.2 8 Noroeste 13 Noroeste 0 -- -- 63
2019-01-26 03:00:00 8.4 4 Norte 5 Norte 0 -- -- 66
2019-01-26 02:00:00 9.2 4 Nordeste 13 Sudoeste 0 -- -- 64
2019-01-26 01:00:00 9.4 3 Nordeste 10 Noroeste 0 -- -- 56
2019-01-26 00:00:00 10.6 5 Noroeste 21 Noroeste 0 -- -- 47
2019-01-25 23:00:00 9.6 12 Noroeste 19 Noroeste 0 -- -- 55
2019-01-25 22:00:00 9.5 10 Noroeste 15 Noroeste 0 -- -- 65
2019-01-25 21:00:00 9.6 8 Noroeste 14 Oeste 0 -- -- 64
2019-01-25 20:00:00 9.5 8 Noroeste 10 Noroeste 0 -- -- 69
2019-01-25 19:00:00 9.8 3 Sur 7 Sur 0 -- -- 67
2019-01-25 18:00:00 11.4 4 Sur 9 Sur 0 -- -- 62
2019-01-25 17:00:00 13.1 5 Sur 12 Sudeste 0 -- -- 52
2019-01-25 16:00:00 14.3 8 Sur 13 Sudeste 0 -- -- 47
2019-01-25 15:00:00 15 8 Sur 17 Sur 0 -- -- 42
2019-01-25 14:00:00 14.7 9 Sur 22 Sur 0 -- -- 41
2019-01-25 13:00:00 14.2 13 Sur 24 Sur 0 -- -- 40
2019-01-25 12:00:00 14.3 6 Sur 13 Sur 0 -- -- 32
2019-01-25 11:00:00 11.8 7 Noroeste 14 Oeste 0 -- -- 25
2019-01-25 10:00:00 9.7 12 Oeste 22 Noroeste 0 -- -- 26
2019-01-25 09:00:00 7.3 13 Noroeste 25 Noroeste 0 -- -- 31
2019-01-25 08:00:00 5.8 10 Noroeste 22 Noroeste 0 -- -- 30
2019-01-25 07:00:00 5.3 6 Noroeste 18 Noroeste 0 -- -- 28
2019-01-25 06:00:00 6.4 9 Noroeste 24 Noroeste 0 -- -- 25
2019-01-25 05:00:00 5.8 16 Noroeste 27 Norte 0 -- -- 25
2019-01-25 04:00:00 4.5 4 Noroeste 13 Noroeste 0 -- -- 30
2019-01-25 03:00:00 5.9 7 Noroeste 26 Noroeste 0 -- -- 24
2019-01-25 02:00:00 6.2 9 Noroeste 18 Noroeste 0 -- -- 23
2019-01-25 01:00:00 6.1 14 Noroeste 18 Noroeste 0 -- -- 24
2019-01-25 00:00:00 7.1 9 Noroeste 22 Noroeste 0 -- -- 22
2019-01-24 23:00:00 7.3 14 Noroeste 22 Noroeste 0 -- -- 21
2019-01-24 22:00:00 7.6 7 Noroeste 23 Norte 0 -- -- 20
2019-01-24 21:00:00 8 11 Noroeste 22 Norte 0 -- -- 21
2019-01-24 20:00:00 8.1 7 Noroeste 12 Nordeste 0 -- -- 21
2019-01-24 19:00:00 9.7 8 Nordeste 31 Nordeste 0 -- -- 19
2019-01-24 18:00:00 11.1 12 Nordeste 21 Nordeste 0 -- -- 18
2019-01-24 17:00:00 13.3 6 Noroeste 28 Noroeste 0 -- -- 15
2019-01-24 16:00:00 13.8 11 Noroeste 31 Noroeste 0 -- -- 14
2019-01-24 15:00:00 13.8 15 Norte 37 Noroeste 0 -- -- 14
2019-01-24 14:00:00 13.6 17 Nordeste 46 Norte 0 -- -- 14
2019-01-24 13:00:00 13.2 13 Norte 33 Norte 0 -- -- 15
2019-01-24 12:00:00 11.8 8 Sur 16 Sur 0 -- -- 36
2019-01-24 11:00:00 9.8 5 Oeste 14 Oeste 0 -- -- 34
2019-01-24 10:00:00 8.3 6 Sudoeste 18 Nordeste 0 -- -- 37
2019-01-24 09:00:00 5.6 8 Sudeste 12 Nordeste 0 -- -- 46
2019-01-24 08:00:00 2.5 5 Noroeste 9 Este 0 -- -- 57
2019-01-24 07:00:00 3.6 3 Nordeste 29 Oeste 0 -- -- 52
2019-01-24 06:00:00 4.6 9 Noroeste 39 Noroeste 0 -- -- 48
2019-01-24 05:00:00 4.7 11 Oeste 30 Noroeste 0 -- -- 46
2019-01-24 04:00:00 4.8 8 Noroeste 22 Noroeste 0 -- -- 41
2019-01-24 03:00:00 5.1 8 Nordeste 25 Noroeste 0 -- -- 39
2019-01-24 02:00:00 4.6 5 Sur 18 Este 0 -- -- 45
2019-01-24 01:00:00 5 8 Nordeste 23 Nordeste 0 -- -- 46
2019-01-24 00:00:00 4.6 6 Este 24 Norte 0 -- -- 53
2019-01-23 23:00:00 3.6 6 Norte 17 Norte 0 -- -- 69
2019-01-23 22:00:00 4 6 Este 24 Este 0 -- -- 71
2019-01-23 21:00:00 4.7 7 Este 37 Este 0 -- -- 71
2019-01-23 20:00:00 5.8 14 Nordeste 33 Este 0 -- -- 65
2019-01-23 19:00:00 7.1 9 Nordeste 29 Noroeste 0 -- -- 65
2019-01-23 18:00:00 8.2 7 Noroeste 14 Noroeste 0 -- -- 70
2019-01-23 17:00:00 8.9 7 Nordeste 14 Norte 0 -- -- 63
2019-01-23 16:00:00 9.8 5 Oeste 13 Noroeste 0 -- -- 57
2019-01-23 15:00:00 10.2 5 Este 15 Este 0 -- -- 55
2019-01-23 14:00:00 11.3 6 Nordeste 18 Este 0 -- -- 50
2019-01-23 13:00:00 10.3 7 Norte 19 Norte 0 -- -- 51
2019-01-23 12:00:00 8.7 5 Noroeste 14 Norte 0 -- -- 61
2019-01-23 11:00:00 5.9 9 Norte 22 Noroeste 0 -- -- 67
2019-01-23 10:00:00 5.2 10 Noroeste 29 Noroeste 0 -- -- 66
2019-01-23 09:00:00 4.4 18 Noroeste 27 Noroeste 0 -- -- 67
2019-01-23 08:00:00 4.4 6 Noroeste 24 Noroeste 0 -- -- 67
2019-01-23 07:00:00 4.8 16 Noroeste 29 Noroeste 0 -- -- 66
2019-01-23 06:00:00 5.2 18 Noroeste 28 Noroeste 0 -- -- 63
2019-01-23 05:00:00 6.7 12 Noroeste 18 Noroeste 0 -- -- 58
2019-01-23 04:00:00 6.4 12 Noroeste 20 Noroeste 0 -- -- 64
2019-01-23 03:00:00 6.7 10 Noroeste 22 Noroeste 0 -- -- 63
2019-01-23 02:00:00 7.3 9 Noroeste 22 Noroeste 0 -- -- 60
2019-01-23 01:00:00 6.8 15 Noroeste 26 Noroeste 0 -- -- 59
2019-01-23 00:00:00 6.9 14 Noroeste 22 Noroeste 0 -- -- 59
2019-01-22 23:00:00 6.9 9 Norte 21 Norte 0 -- -- 58
2019-01-22 22:00:00 7 16 Norte 24 Norte 0 -- -- 54
2019-01-22 21:00:00 7.6 7 Norte 26 Norte 0 -- -- 47
2019-01-22 20:00:00 8 11 Norte 21 Norte 0 -- -- 41
2019-01-22 19:00:00 7.9 3 Oeste 9 Noroeste 0 -- -- 60
2019-01-22 18:00:00 8.6 7 Noroeste 11 Sudoeste 0 -- -- 62
2019-01-22 17:00:00 9 7 Oeste 28 Sudoeste 0 -- -- 62
2019-01-22 16:00:00 9.4 10 Sudoeste 21 Oeste 0 -- -- 56
2019-01-22 15:00:00 9.6 9 Sudoeste 27 Sudoeste 0 -- -- 54
2019-01-22 14:00:00 11.3 13 Sur 23 Sur 0 -- -- 55
2019-01-22 13:00:00 10.7 9 Sur 23 Sur 0 -- -- 64
2019-01-22 12:00:00 10.5 6 Sur 14 Sudoeste 0 -- -- 68
2019-01-22 11:00:00 7.2 6 Noroeste 20 Noroeste 0 -- -- 71
2019-01-22 10:00:00 4.4 15 Noroeste 23 Noroeste 0 -- -- 75
2019-01-22 09:00:00 3.7 13 Noroeste 33 Noroeste 0 -- -- 76
2019-01-22 08:00:00 2.9 15 Noroeste 24 Noroeste 0 -- -- 78
2019-01-22 07:00:00 2.9 17 Noroeste 22 Noroeste 0 -- -- 76
2019-01-22 06:00:00 2.8 20 Noroeste 28 Noroeste 0 -- -- 79
2019-01-22 05:00:00 4.2 18 Noroeste 25 Noroeste 0 -- -- 69
2019-01-22 04:00:00 4.5 13 Norte 26 Norte 0 -- -- 65
2019-01-22 03:00:00 4.6 18 Norte 24 Noroeste 0 -- -- 66
2019-01-22 02:00:00 4.8 11 Norte 19 Noroeste 0 -- -- 65
2019-01-22 01:00:00 5.1 11 Norte 27 Norte 0 -- -- 67
2019-01-22 00:00:00 5.3 13 Norte 32 Norte 0 -- -- 68
2019-01-21 23:00:00 5.6 13 Norte 28 Norte 0 -- -- 69
2019-01-21 22:00:00 6.2 14 Norte 30 Norte 0 -- -- 69
2019-01-21 21:00:00 6.9 18 Norte 26 Norte 0 -- -- 71
2019-01-21 20:00:00 8.4 10 Norte 18 Norte 0 -- -- 76
2019-01-21 19:00:00 8.9 9 Noroeste 19 Oeste 0 -- -- 73
2019-01-21 18:00:00 9.5 5 Oeste 15 Sudoeste 0 -- -- 68
2019-01-21 17:00:00 11.5 6 Sudoeste 13 Sur 0 -- -- 62
2019-01-21 16:00:00 11.1 0 Calma 14 Sur 0 -- -- 62
2019-01-21 15:00:00 12.7 7 Sur 13 Sur 0 -- -- 58
2019-01-21 14:00:00 12.9 5 Sur 11 Sur 0 -- -- 59
2019-01-21 13:00:00 11.2 5 Sudoeste 16 Oeste 0 -- -- 65
2019-01-21 12:00:00 10 10 Norte 23 Norte 0 -- -- 62
2019-01-21 11:00:00 9.4 14 Norte 24 Norte 0 -- -- 62
2019-01-21 10:00:00 7 13 Norte 24 Norte 0 -- -- 72
2019-01-21 09:00:00 6.5 13 Noroeste 24 Noroeste 0 -- -- 71
2019-01-21 08:00:00 5.6 10 Noroeste 21 Noroeste 0 -- -- 76
2019-01-21 07:00:00 5.8 10 Noroeste 23 Norte 0 -- -- 76
2019-01-21 06:00:00 5.5 15 Norte 22 Norte 0 -- -- 80
2019-01-21 05:00:00 5.7 10 Norte 18 Norte 0 -- -- 81
2019-01-21 04:00:00 6.2 15 Norte 26 Norte 0 -- -- 80
2019-01-21 03:00:00 6.3 13 Norte 23 Norte 0 -- -- 81
2019-01-21 02:00:00 6.8 14 Norte 27 Norte 0 -- -- 81
2019-01-21 01:00:00 7.4 17 Norte 32 Norte 0 -- -- 79
2019-01-21 00:00:00 7 15 Norte 28 Norte 0 -- -- 86
2019-01-20 23:00:00 7.2 16 Norte 26 Norte 0 -- -- 86
2019-01-20 22:00:00 8.1 8 Nordeste 31 Norte 0 -- -- 80
2019-01-20 21:00:00 8.2 9 Nordeste 26 Nordeste 0 -- -- 82
2019-01-20 20:00:00 8.8 12 Nordeste 32 Norte 0 -- -- 80
2019-01-20 19:00:00 8.6 12 Nordeste 33 Este 0 -- -- 78
2019-01-20 18:00:00 8.6 8 Nordeste 23 Nordeste 0 -- -- 80
2019-01-20 17:00:00 8.7 6 Nordeste 25 Nordeste 0 -- -- 80
2019-01-20 16:00:00 8.7 6 Nordeste 17 Este 0 -- -- 85
2019-01-20 15:00:00 8.5 9 Nordeste 22 Este 0 -- -- 90
2019-01-20 14:00:00 8.3 10 Nordeste 26 Norte 0.2 -- -- 86
2019-01-20 13:00:00 8.5 9 Norte 23 Norte 0 -- -- 93
2019-01-20 12:00:00 8.1 10 Norte 23 Norte 1.2 -- -- 96
2019-01-20 11:00:00 7.9 18 Norte 23 Norte 1.2 -- -- 95
2019-01-20 10:00:00 8.9 7 Este 18 Este 0.6 -- -- 96
2019-01-20 09:00:00 8.9 5 Noroeste 18 Sur 5 -- -- 97
2019-01-20 08:00:00 8 5 Norte 16 Noroeste 3.8 -- -- 96
2019-01-20 07:00:00 7.9 10 Norte 14 Norte 1.2 -- -- 93
2019-01-20 06:00:00 8.8 10 Noroeste 16 Norte 0 -- -- 85
2019-01-20 05:00:00 8.5 12 Noroeste 22 Noroeste 0 -- -- 87
2019-01-20 04:00:00 8.3 13 Noroeste 18 Noroeste 0.2 -- -- 87
2019-01-20 03:00:00 9 6 Oeste 13 Oeste 0 -- -- 77
2019-01-20 02:00:00 9.3 5 Oeste 13 Sudoeste 0 -- -- 71
2019-01-20 01:00:00 9.1 8 Oeste 16 Oeste 0 -- -- 72
2019-01-20 00:00:00 8.8 5 Noroeste 14 Oeste 0 -- -- 71
2019-01-19 23:00:00 8.5 7 Oeste 17 Sudoeste 0 -- -- 75
2019-01-19 22:00:00 8.6 8 Oeste 14 Oeste 0 -- -- 78
2019-01-19 21:00:00 8.9 6 Oeste 14 Oeste 0 -- -- 75
2019-01-19 20:00:00 9.1 7 Oeste 15 Oeste 0 -- -- 74
2019-01-19 19:00:00 9.6 8 Oeste 25 Sudoeste 0 -- -- 71
2019-01-19 18:00:00 9.9 12 Sur 23 Sur 0 -- -- 71
2019-01-19 17:00:00 10.8 14 Sur 24 Sur 0 -- -- 70
2019-01-19 16:00:00 12.5 11 Sur 21 Sur 0 -- -- 65
2019-01-19 15:00:00 14 8 Sur 16 Sur 0 -- -- 62
2019-01-19 14:00:00 13.9 9 Sur 18 Sur 0 -- -- 62
2019-01-19 13:00:00 13.7 8 Sur 13 Sur 0 -- -- 61
2019-01-19 12:00:00 12.4 6 Sur 10 Sudoeste 0 -- -- 62
2019-01-19 11:00:00 10.3 4 Noroeste 23 Noroeste 0 -- -- 69
2019-01-19 10:00:00 7.8 15 Noroeste 24 Noroeste 0 -- -- 76
2019-01-19 09:00:00 7 13 Noroeste 21 Noroeste 0 -- -- 81
2019-01-19 08:00:00 6.2 14 Noroeste 23 Noroeste 0 -- -- 84
2019-01-19 07:00:00 6.2 13 Noroeste 19 Noroeste 0 -- -- 85
2019-01-19 06:00:00 6.3 13 Norte 18 Norte 0.2 -- -- 87
2019-01-19 05:00:00 6.5 13 Noroeste 17 Norte 0.4 -- -- 90
2019-01-19 04:00:00 7.4 8 Norte 15 Norte 0 -- -- 85
2019-01-19 03:00:00 7.9 14 Norte 17 Norte 0 -- -- 79
2019-01-19 02:00:00 7.5 10 Norte 20 Norte 0 -- -- 79
2019-01-19 01:00:00 7.1 10 Norte 13 Norte 0 -- -- 78
2019-01-19 00:00:00 6.7 6 Norte 15 Noroeste 0 -- -- 80